Terminal Aerodrome Forecast
Issued by NWS

Home | Current Version | Previous Version | Text Only | Print | Product List | Glossary On
Versions: 1 2 3 4 5 6 7 8 9 10 11 12 13 14 15 16
000
FTUS46 KSEW 251700 RRA
TAFPAE
TAF
KPAE 251741Z 2518/2618 20006KT P6SM BKN015 OVC022
     FM252200 25003KT P6SM SCT025 OVC040
     FM260400 VRB03KT P6SM SCT015 BKN020 OVC040
     FM261400 VRB03KT P6SM BKN015 OVC025=

USA.gov is the U.S. government's official web portal to all federal, state and local government web resources and services.